TAF KGEG
KGEG 081739Z 0818/0918 22014G22KT P6SM SCT015 SCT060 FM081930 25020G32KT P6SM SCT060 FM090100 24012KT P6SM FEW100 FM091000 23010KT P6SM SCT009 FM091400 21008KT 6SM BR OVC009=
METAR KGEG
WC KGEG
WS KGEG
WV KGEG